Time;durP1;ratioP1;P1;durP2;ratioP2;P2;SDS_P1;SDS_P2;PMS_P1;PMS_P2;Temp;Humidity;BMP_temperature;BMP_pressure;BME280_temperature;BME280_humidity;BME280_pressure;Samples;Min_cycle;Max_cycle;Signal;HPM_P1;HPM_P2
2023/12/10 00:01:13;;;;;;;;;;;13.40;79.80;;;;;;4979735;28;19952;-80
2023/12/10 00:03:38;;;;;;;;;;;13.40;79.80;;;;;;4980343;28;19905;-80
2023/12/10 00:06:04;;;;;;;;;;;13.40;79.80;;;;;;4980319;28;19912;-80
2023/12/10 00:08:29;;;;;;;;;;;13.40;79.70;;;;;;4980192;28;19913;-81
2023/12/10 00:10:55;;;;;;;;;;;13.40;79.80;;;;;;4980377;28;20084;-80
2023/12/10 00:13:20;;;;;;;;;;;13.40;79.80;;;;;;4980015;28;19952;-80
2023/12/10 00:15:45;;;;;;;;;;;13.40;79.80;;;;;;4979912;28;19957;-80
2023/12/10 00:18:11;;;;;;;;;;;13.40;79.80;;;;;;4979829;28;19913;-80
2023/12/10 00:20:36;;;;;;;;;;;13.40;79.80;;;;;;4979722;28;20640;-79
2023/12/10 00:23:02;;;;;;;;;;;13.30;79.70;;;;;;4997196;28;19956;-80
2023/12/10 00:25:31;;;;;;;;;;;13.40;79.80;;;;;;4979852;28;19997;-80
2023/12/10 00:27:57;;;;;;;;;;;13.30;80.20;;;;;;4979893;28;19909;-80
2023/12/10 00:30:23;;;;;;;;;;;13.40;79.80;;;;;;4979897;28;20375;-81
2023/12/10 00:32:48;;;;;;;;;;;13.30;79.70;;;;;;4979757;28;19913;-80
2023/12/10 00:35:13;;;;;;;;;;;13.30;79.80;;;;;;4979855;28;20278;-80
2023/12/10 00:37:39;;;;;;;;;;;13.40;79.80;;;;;;4979556;28;19965;-80
2023/12/10 00:40:06;;;;;;;;;;;13.40;79.80;;;;;;4979373;28;20539;-81
2023/12/10 00:42:31;;;;;;;;;;;13.30;79.80;;;;;;4979654;28;20593;-81
2023/12/10 00:44:57;;;;;;;;;;;13.30;79.70;;;;;;4979588;28;19905;-80
2023/12/10 00:47:22;;;;;;;;;;;13.40;79.80;;;;;;4979528;28;19905;-81
2023/12/10 00:49:47;;;;;;;;;;;13.30;79.70;;;;;;4996256;28;19910;-80
2023/12/10 00:52:13;;;;;;;;;;;13.40;79.80;;;;;;4979546;28;19906;-81
2023/12/10 00:54:39;;;;;;;;;;;13.30;79.80;;;;;;4979276;28;19906;-80
2023/12/10 00:57:04;;;;;;;;;;;13.30;79.80;;;;;;4979300;28;19906;-81
2023/12/10 00:59:30;;;;;;;;;;;13.30;79.80;;;;;;4979273;28;20000;-81
2023/12/10 01:01:55;;;;;;;;;;;13.30;79.80;;;;;;4979245;28;19944;-79
2023/12/10 01:04:22;;;;;;;;;;;13.30;79.80;;;;;;4979317;28;20005;-80
2023/12/10 01:06:47;;;;;;;;;;;13.30;79.80;;;;;;4979050;28;19941;-80
2023/12/10 01:09:15;;;;;;;;;;;13.30;79.80;;;;;;4978683;28;20294;-81
2023/12/10 01:11:40;;;;;;;;;;;13.30;79.80;;;;;;4996399;28;19913;-80
2023/12/10 01:14:06;;;;;;;;;;;13.30;79.80;;;;;;4979075;28;19910;-80
2023/12/10 01:16:32;;;;;;;;;;;13.30;79.80;;;;;;4978800;28;19906;-81
2023/12/10 01:18:57;;;;;;;;;;;13.30;79.80;;;;;;4978539;28;20004;-81
2023/12/10 01:21:22;;;;;;;;;;;13.30;79.80;;;;;;4978476;28;19913;-80
2023/12/10 01:23:50;;;;;;;;;;;13.30;79.90;;;;;;4978522;28;19910;-80
2023/12/10 01:26:16;;;;;;;;;;;13.30;79.90;;;;;;4978659;28;19969;-81
2023/12/10 01:28:41;;;;;;;;;;;13.30;79.90;;;;;;4978388;28;19957;-81
2023/12/10 01:31:07;;;;;;;;;;;13.30;79.80;;;;;;4995822;28;19912;-80
2023/12/10 01:33:32;;;;;;;;;;;13.30;79.80;;;;;;4978372;28;19906;-80
2023/12/10 01:35:58;;;;;;;;;;;13.30;79.90;;;;;;4987371;28;20000;-80
2023/12/10 01:38:23;;;;;;;;;;;13.30;79.90;;;;;;4990434;28;19976;-80
2023/12/10 01:40:49;;;;;;;;;;;13.30;79.90;;;;;;4975791;28;19916;-81
2023/12/10 01:43:17;;;;;;;;;;;13.30;79.90;;;;;;4978230;28;20021;-82
2023/12/10 01:45:50;;;;;;;;;;;13.30;79.90;;;;;;4977950;28;20409;-80
2023/12/10 01:48:15;;;;;;;;;;;13.30;79.90;;;;;;4977884;28;19929;-79
2023/12/10 01:50:42;;;;;;;;;;;13.30;79.90;;;;;;4995761;28;19912;-80
2023/12/10 01:53:08;;;;;;;;;;;13.30;79.90;;;;;;4995260;28;20005;-81
2023/12/10 01:55:33;;;;;;;;;;;13.30;79.90;;;;;;4978313;28;19906;-80
2023/12/10 01:57:59;;;;;;;;;;;13.30;79.90;;;;;;4978081;28;20290;-81
2023/12/10 02:00:25;;;;;;;;;;;13.30;80.00;;;;;;4977856;28;19982;-81
2023/12/10 02:02:51;;;;;;;;;;;13.30;80.00;;;;;;4977983;28;19952;-81
2023/12/10 02:05:17;;;;;;;;;;;13.30;79.90;;;;;;4978282;28;19926;-80
2023/12/10 02:07:43;;;;;;;;;;;13.30;79.90;;;;;;4978200;28;20350;-81
2023/12/10 02:10:09;;;;;;;;;;;13.30;80.00;;;;;;4977915;28;19912;-80
2023/12/10 02:12:35;;;;;;;;;;;13.30;79.90;;;;;;4995261;28;20390;-80
2023/12/10 02:15:14;;;;;;;;;;;13.30;79.90;;;;;;4979344;28;20004;-81
2023/12/10 02:17:39;;;;;;;;;;;13.30;79.90;;;;;;4982720;28;20382;-81
2023/12/10 02:20:05;;;;;;;;;;;13.30;80.00;;;;;;4977432;28;19913;-79
2023/12/10 02:22:31;;;;;;;;;;;13.30;80.00;;;;;;4994365;28;19917;-81
2023/12/10 02:24:58;;;;;;;;;;;13.30;80.00;;;;;;4977868;28;19980;-81
2023/12/10 02:27:24;;;;;;;;;;;13.30;80.00;;;;;;4977704;28;19909;-80
2023/12/10 02:29:50;;;;;;;;;;;13.30;80.00;;;;;;4977478;28;19906;-80
2023/12/10 02:32:16;;;;;;;;;;;13.30;80.00;;;;;;4977532;28;19910;-80
2023/12/10 02:34:42;;;;;;;;;;;13.20;80.00;;;;;;4977396;28;20259;-80
2023/12/10 02:37:07;;;;;;;;;;;13.30;80.00;;;;;;4977231;28;19906;-80
2023/12/10 02:39:32;;;;;;;;;;;13.30;80.00;;;;;;4994625;28;19906;-80
2023/12/10 02:41:58;;;;;;;;;;;13.30;80.00;;;;;;4977245;28;19956;-80
2023/12/10 02:44:23;;;;;;;;;;;13.30;80.00;;;;;;4977262;28;19909;-81
2023/12/10 02:46:49;;;;;;;;;;;13.30;80.00;;;;;;4977470;28;19906;-81
2023/12/10 02:49:14;;;;;;;;;;;13.20;80.00;;;;;;4977117;28;20278;-81
2023/12/10 02:51:40;;;;;;;;;;;13.30;80.00;;;;;;4977137;28;19912;-82
2023/12/10 02:54:05;;;;;;;;;;;13.20;80.00;;;;;;4977385;28;20593;-80
2023/12/10 02:56:31;;;;;;;;;;;13.30;80.10;;;;;;4977041;28;20684;-80
2023/12/10 02:58:56;;;;;;;;;;;13.20;80.50;;;;;;4976748;28;20004;-80
2023/12/10 03:01:22;;;;;;;;;;;13.40;80.10;;;;;;4977078;28;20000;-80
2023/12/10 03:03:47;;;;;;;;;;;13.20;80.00;;;;;;4977175;28;19913;-81
2023/12/10 03:06:13;;;;;;;;;;;13.30;80.00;;;;;;4977221;28;19928;-80
2023/12/10 03:08:38;;;;;;;;;;;13.30;80.00;;;;;;4976897;28;19906;-81
2023/12/10 03:11:04;;;;;;;;;;;13.20;80.00;;;;;;4976643;28;19906;-80
2023/12/10 03:13:29;;;;;;;;;;;13.20;80.10;;;;;;4976534;28;19967;-81
2023/12/10 03:15:55;;;;;;;;;;;13.20;80.00;;;;;;4994288;28;19960;-82
2023/12/10 03:18:20;;;;;;;;;;;13.20;80.00;;;;;;4976663;28;19924;-80
2023/12/10 03:20:46;;;;;;;;;;;13.30;80.10;;;;;;4976615;28;19916;-80
2023/12/10 03:23:11;;;;;;;;;;;13.20;80.10;;;;;;4975784;28;20588;-80
2023/12/10 03:25:36;;;;;;;;;;;13.20;80.10;;;;;;4976203;28;19917;-81
2023/12/10 03:28:02;;;;;;;;;;;13.20;80.10;;;;;;4976232;28;19906;-81
2023/12/10 03:30:27;;;;;;;;;;;13.20;80.10;;;;;;4975757;28;19909;-81
2023/12/10 03:32:53;;;;;;;;;;;13.20;80.10;;;;;;4975894;28;20345;-80
2023/12/10 03:35:18;;;;;;;;;;;13.20;80.10;;;;;;4974616;28;20009;-82
2023/12/10 03:37:43;;;;;;;;;;;13.20;80.10;;;;;;4975571;28;19924;-80
2023/12/10 03:40:09;;;;;;;;;;;13.20;80.10;;;;;;4975465;28;19912;-80
2023/12/10 03:42:35;;;;;;;;;;;13.20;80.10;;;;;;4975585;28;19967;-80
2023/12/10 03:45:00;;;;;;;;;;;13.20;80.10;;;;;;4975646;28;19910;-80
2023/12/10 03:47:26;;;;;;;;;;;13.20;80.10;;;;;;4975813;28;19910;-80
2023/12/10 03:49:51;;;;;;;;;;;13.20;80.10;;;;;;4973580;28;20371;-80
2023/12/10 03:52:16;;;;;;;;;;;13.20;80.70;;;;;;4975120;28;20322;-80
2023/12/10 03:54:42;;;;;;;;;;;13.20;80.20;;;;;;4975322;28;19913;-80
2023/12/10 03:57:07;;;;;;;;;;;13.20;80.10;;;;;;4975362;28;19913;-80
2023/12/10 03:59:33;;;;;;;;;;;13.20;80.10;;;;;;4975514;28;19906;-79
2023/12/10 04:01:58;;;;;;;;;;;13.20;80.10;;;;;;4975375;28;19910;-81
2023/12/10 04:04:23;;;;;;;;;;;13.20;80.10;;;;;;4975569;28;19910;-80
2023/12/10 04:06:49;;;;;;;;;;;13.10;80.10;;;;;;4975434;28;19952;-80
2023/12/10 04:09:14;;;;;;;;;;;13.20;80.20;;;;;;4975189;28;19905;-80
2023/12/10 04:11:40;;;;;;;;;;;13.20;80.20;;;;;;4975074;28;19957;-79
2023/12/10 04:14:11;;;;;;;;;;;13.20;80.70;;;;;;4975231;28;19974;-80
2023/12/10 04:16:37;;;;;;;;;;;13.20;80.20;;;;;;4975290;28;20012;-80
2023/12/10 04:19:03;;;;;;;;;;;13.20;80.20;;;;;;4975051;28;20029;-80
2023/12/10 04:21:28;;;;;;;;;;;13.20;80.20;;;;;;4941169;28;1000629;-80
2023/12/10 04:23:53;;;;;;;;;;;13.20;80.20;;;;;;4993419;28;20384;-81
2023/12/10 04:26:19;;;;;;;;;;;13.20;80.20;;;;;;4993433;28;19912;-80
2023/12/10 04:28:45;;;;;;;;;;;13.20;80.20;;;;;;4976025;28;19912;-80
2023/12/10 04:31:10;;;;;;;;;;;13.20;80.20;;;;;;4976031;28;20007;-80
2023/12/10 04:33:36;;;;;;;;;;;13.20;80.30;;;;;;4993420;28;19933;-80
2023/12/10 04:36:01;;;;;;;;;;;13.20;80.30;;;;;;4976080;28;20507;-80
2023/12/10 04:38:28;;;;;;;;;;;13.20;80.30;;;;;;4975637;28;19913;-81
2023/12/10 04:40:53;;;;;;;;;;;13.20;80.30;;;;;;4975960;28;19972;-81
2023/12/10 04:43:19;;;;;;;;;;;13.20;80.30;;;;;;4993295;28;19910;-80
2023/12/10 04:45:44;;;;;;;;;;;13.20;80.30;;;;;;4976966;28;19913;-80
2023/12/10 04:48:11;;;;;;;;;;;13.20;80.30;;;;;;4979581;28;19905;-80
2023/12/10 04:50:36;;;;;;;;;;;13.10;80.20;;;;;;4975961;28;19956;-80
2023/12/10 04:53:01;;;;;;;;;;;13.20;80.30;;;;;;4960014;28;20005;-80
2023/12/10 04:55:27;;;;;;;;;;;13.20;80.30;;;;;;4977391;28;19906;-79
2023/12/10 04:57:52;;;;;;;;;;;13.10;80.20;;;;;;4959730;28;19910;-80
2023/12/10 05:00:18;;;;;;;;;;;13.20;80.30;;;;;;4959697;28;19913;-80
2023/12/10 05:02:43;;;;;;;;;;;13.20;80.30;;;;;;4959595;28;19906;-80
2023/12/10 05:05:08;;;;;;;;;;;13.20;80.30;;;;;;4959759;28;19906;-80
2023/12/10 05:07:34;;;;;;;;;;;13.10;80.30;;;;;;4959740;28;20298;-81
2023/12/10 05:10:00;;;;;;;;;;;13.20;80.30;;;;;;4959500;28;19956;-81
2023/12/10 05:12:25;;;;;;;;;;;13.20;80.80;;;;;;4959527;28;19906;-80
2023/12/10 05:14:51;;;;;;;;;;;13.20;80.30;;;;;;4959738;28;20005;-80
2023/12/10 05:17:16;;;;;;;;;;;13.10;80.30;;;;;;4959496;28;19961;-80
2023/12/10 05:19:42;;;;;;;;;;;13.20;80.30;;;;;;4959426;28;19906;-80
2023/12/10 05:22:07;;;;;;;;;;;13.10;80.30;;;;;;4959250;28;19936;-80
2023/12/10 05:24:32;;;;;;;;;;;13.10;80.30;;;;;;4975469;28;19953;-79
2023/12/10 05:26:58;;;;;;;;;;;13.10;80.30;;;;;;4975362;28;19910;-81
2023/12/10 05:29:23;;;;;;;;;;;13.20;80.40;;;;;;4958807;28;20004;-80
2023/12/10 05:31:49;;;;;;;;;;;13.10;80.30;;;;;;4959363;28;19997;-78
2023/12/10 05:34:14;;;;;;;;;;;13.10;80.30;;;;;;4959221;28;19910;-81
2023/12/10 05:36:39;;;;;;;;;;;13.10;80.30;;;;;;4959134;28;20286;-80
2023/12/10 05:39:05;;;;;;;;;;;13.10;80.30;;;;;;4958900;28;20486;-81
2023/12/10 05:41:30;;;;;;;;;;;13.10;80.40;;;;;;4974820;28;19906;-80
2023/12/10 05:43:56;;;;;;;;;;;13.10;80.40;;;;;;4959097;28;20362;-80
2023/12/10 05:46:21;;;;;;;;;;;13.10;80.40;;;;;;4959166;28;20404;-80
2023/12/10 05:48:47;;;;;;;;;;;13.10;80.30;;;;;;4958663;28;19933;-81
2023/12/10 05:51:12;;;;;;;;;;;13.10;80.30;;;;;;4969949;28;19906;-81
2023/12/10 05:53:37;;;;;;;;;;;13.00;80.30;;;;;;4977808;28;20263;-80
2023/12/10 05:56:03;;;;;;;;;;;13.10;80.40;;;;;;4995501;28;19933;-82
2023/12/10 05:58:28;;;;;;;;;;;13.10;80.40;;;;;;4977051;28;20465;-80
2023/12/10 06:00:54;;;;;;;;;;;13.10;80.40;;;;;;4976759;28;19906;-80
2023/12/10 06:03:19;;;;;;;;;;;13.10;80.40;;;;;;4978072;28;19909;-81
2023/12/10 06:05:45;;;;;;;;;;;13.10;80.40;;;;;;4978022;28;19983;-80
2023/12/10 06:08:10;;;;;;;;;;;13.10;80.40;;;;;;4978057;28;19912;-79
2023/12/10 06:10:36;;;;;;;;;;;13.10;80.40;;;;;;4977959;28;19912;-81
2023/12/10 06:13:02;;;;;;;;;;;13.10;80.40;;;;;;4978067;28;20000;-80
2023/12/10 06:15:28;;;;;;;;;;;13.10;80.40;;;;;;4995062;28;19910;-83
2023/12/10 06:17:53;;;;;;;;;;;13.10;80.50;;;;;;4975165;28;20263;-79
2023/12/10 06:20:19;;;;;;;;;;;13.10;80.40;;;;;;4974783;28;19913;-79
2023/12/10 06:33:17;;;;;;;;;;;;;;;;;;;;;
2023/12/10 06:35:45;;;;;;;;;;;13.20;80.40;;;;;;4973778;28;19913;-81
2023/12/10 06:38:17;;;;;;;;;;;13.30;80.60;;;;;;4956165;28;20459;-79
2023/12/10 06:43:44;;;;;;;;;;;13.10;80.40;;;;;;4973956;28;20751;-79
2023/12/10 06:46:13;;;;;;;;;;;13.00;80.40;;;;;;4971897;28;19909;-81
2023/12/10 06:48:44;;;;;;;;;;;13.00;80.40;;;;;;4956541;28;19906;-81
2023/12/10 06:51:12;;;;;;;;;;;13.10;80.50;;;;;;4955837;28;19910;-82
2023/12/10 06:53:40;;;;;;;;;;;13.40;80.60;;;;;;4955371;28;19917;-80
2023/12/10 06:56:08;;;;;;;;;;;13.70;80.80;;;;;;4955643;28;19993;-79
2023/12/10 06:58:39;;;;;;;;;;;13.10;80.50;;;;;;4955087;28;19914;-81
2023/12/10 07:01:21;;;;;;;;;;;13.10;80.50;;;;;;4955096;28;19913;-80
2023/12/10 07:06:54;;;;;;;;;;;13.10;80.50;;;;;;4940010;28;20106;-79
2023/12/10 07:09:31;;;;;;;;;;;13.50;80.80;;;;;;4972213;28;20370;-82
2023/12/10 07:12:22;;;;;;;;;;;;;;;;;;;;;
2023/12/10 07:14:48;;;;;;;;;;;13.20;80.60;;;;;;4973113;28;19912;-81
2023/12/10 07:17:23;;;;;;;;;;;13.00;80.50;;;;;;4954808;28;20001;-82
2023/12/10 07:19:57;;;;;;;;;;;13.00;80.60;;;;;;4971692;28;19917;-79
2023/12/10 07:23:00;;;;;;;;;;;12.90;80.50;;;;;;5019788;22;19933;-80
2023/12/10 07:25:37;;;;;;;;;;;12.90;80.50;;;;;;4931378;29;19989;-80
2023/12/10 07:28:37;;;;;;;;;;;13.80;81.00;;;;;;4915313;29;19906;-80
2023/12/10 07:34:29;;;;;;;;;;;13.00;80.60;;;;;;4897437;28;19935;-78
2023/12/10 07:37:40;;;;;;;;;;;13.00;80.60;;;;;;4955376;28;19909;-78
2023/12/10 07:42:49;;;;;;;;;;;13.00;80.60;;;;;;4947243;28;19917;-82
2023/12/10 07:45:26;;;;;;;;;;;13.00;80.60;;;;;;4949871;29;19902;-82
2023/12/10 07:48:29;;;;;;;;;;;13.00;80.60;;;;;;4934381;29;20009;-81
2023/12/10 07:55:58;;;;;;;;;;;13.00;80.60;;;;;;4985521;28;19933;-81
2023/12/10 07:58:23;;;;;;;;;;;13.00;80.60;;;;;;4973383;28;20447;-80
2023/12/10 08:00:51;;;;;;;;;;;13.20;80.70;;;;;;4974085;28;19910;-82
2023/12/10 08:03:16;;;;;;;;;;;13.60;81.00;;;;;;4991945;28;19928;-80
2023/12/10 08:05:54;;;;;;;;;;;12.90;80.60;;;;;;4975109;28;20589;-81
2023/12/10 08:08:23;;;;;;;;;;;13.00;80.60;;;;;;4990172;28;19905;-82
2023/12/10 08:10:49;;;;;;;;;;;13.00;80.60;;;;;;4973214;28;20404;-80
2023/12/10 08:13:15;;;;;;;;;;;13.00;80.60;;;;;;4974748;28;19902;-81
2023/12/10 08:15:41;;;;;;;;;;;12.90;80.60;;;;;;4974399;28;20274;-81
2023/12/10 08:18:07;;;;;;;;;;;13.00;80.60;;;;;;4976263;28;19916;-79
2023/12/10 08:20:33;;;;;;;;;;;13.00;80.60;;;;;;4975515;28;19921;-81
2023/12/10 08:26:11;;;;;;;;;;;12.90;80.70;;;;;;4977030;28;19917;-82
2023/12/10 08:28:40;;;;;;;;;;;13.10;80.80;;;;;;4976932;28;19906;-82
2023/12/10 08:31:05;;;;;;;;;;;13.00;80.60;;;;;;4976877;28;20260;-82
2023/12/10 08:33:31;;;;;;;;;;;13.00;80.70;;;;;;4957617;28;19910;-82
2023/12/10 08:35:56;;;;;;;;;;;13.60;81.10;;;;;;4956909;28;19906;-81
2023/12/10 08:38:22;;;;;;;;;;;13.00;80.70;;;;;;4957508;28;19914;-83
2023/12/10 08:40:47;;;;;;;;;;;13.00;80.70;;;;;;4957244;28;20526;-85
2023/12/10 08:43:13;;;;;;;;;;;13.00;80.80;;;;;;4974430;28;19965;-82
2023/12/10 08:45:38;;;;;;;;;;;13.00;80.80;;;;;;4957112;28;19993;-83
2023/12/10 08:48:04;;;;;;;;;;;13.00;80.80;;;;;;4956918;28;19910;-82
2023/12/10 08:50:29;;;;;;;;;;;13.00;80.70;;;;;;4956470;28;19960;-83
2023/12/10 08:52:55;;;;;;;;;;;13.10;80.90;;;;;;4956719;28;20244;-81
2023/12/10 08:55:20;;;;;;;;;;;13.00;80.80;;;;;;4974341;28;19921;-82
2023/12/10 08:57:48;;;;;;;;;;;13.00;80.80;;;;;;4974175;28;19914;-82
2023/12/10 09:00:14;;;;;;;;;;;13.10;80.80;;;;;;4957096;28;19928;-82
2023/12/10 09:02:44;;;;;;;;;;;13.00;80.80;;;;;;4956994;28;19910;-81
2023/12/10 09:05:09;;;;;;;;;;;13.00;80.80;;;;;;4956778;28;19910;-82
2023/12/10 09:07:35;;;;;;;;;;;13.00;80.80;;;;;;4957424;28;19910;-83
2023/12/10 09:10:00;;;;;;;;;;;13.00;80.80;;;;;;4956977;28;19918;-85
2023/12/10 09:12:27;;;;;;;;;;;13.00;80.80;;;;;;4957530;28;19910;-82
2023/12/10 09:14:53;;;;;;;;;;;12.90;80.80;;;;;;4957511;28;19964;-83
2023/12/10 09:17:19;;;;;;;;;;;13.00;81.30;;;;;;4956704;28;19957;-83
2023/12/10 09:19:44;;;;;;;;;;;12.90;80.80;;;;;;4956782;28;19988;-81
2023/12/10 09:22:10;;;;;;;;;;;13.00;80.80;;;;;;4956809;28;19997;-83
2023/12/10 09:24:35;;;;;;;;;;;13.00;80.90;;;;;;4957049;28;20339;-81
2023/12/10 09:27:01;;;;;;;;;;;13.00;80.80;;;;;;4957020;28;19906;-84
2023/12/10 09:29:26;;;;;;;;;;;12.90;80.80;;;;;;4957116;28;19910;-84
2023/12/10 09:31:57;;;;;;;;;;;12.90;80.80;;;;;;4957566;28;20158;-83
2023/12/10 09:34:26;;;;;;;;;;;12.90;80.80;;;;;;4974363;28;19906;-83
2023/12/10 09:36:51;;;;;;;;;;;12.90;80.80;;;;;;4956753;28;19909;-85
2023/12/10 09:39:18;;;;;;;;;;;13.00;80.80;;;;;;4957311;28;19917;-84
2023/12/10 09:41:43;;;;;;;;;;;13.10;80.80;;;;;;4958104;28;19913;-83
2023/12/10 09:44:09;;;;;;;;;;;13.20;81.00;;;;;;4950136;28;19906;-83
2023/12/10 09:46:34;;;;;;;;;;;12.90;80.70;;;;;;4938404;29;19911;-82
2023/12/10 09:49:00;;;;;;;;;;;12.90;80.70;;;;;;4954820;28;19921;-82
2023/12/10 09:51:31;;;;;;;;;;;12.80;80.70;;;;;;4958361;28;19910;-84
2023/12/10 09:53:56;;;;;;;;;;;13.00;80.80;;;;;;4958154;28;20003;-84
2023/12/10 09:59:17;;;;;;;;;;;12.70;80.70;;;;;;4975010;28;19910;-83
2023/12/10 10:01:50;;;;;;;;;;;12.90;80.80;;;;;;4956595;28;19906;-81
2023/12/10 10:04:16;;;;;;;;;;;12.90;80.80;;;;;;4956740;28;19910;-84
2023/12/10 10:06:41;;;;;;;;;;;12.90;80.80;;;;;;4957889;28;19913;-81
2023/12/10 10:09:07;;;;;;;;;;;12.90;80.80;;;;;;4958403;28;19910;-82
2023/12/10 10:14:21;;;;;;;;;;;12.90;80.80;;;;;;4976540;28;20374;-82
2023/12/10 10:16:54;;;;;;;;;;;12.90;80.90;;;;;;4958227;28;19905;-82
2023/12/10 10:19:36;;;;;;;;;;;12.80;80.80;;;;;;4972825;28;20037;-82
2023/12/10 10:22:06;;;;;;;;;;;12.90;80.90;;;;;;4975746;28;19910;-82
2023/12/10 10:24:35;;;;;;;;;;;12.90;80.90;;;;;;4958900;28;19906;-82
2023/12/10 10:27:07;;;;;;;;;;;12.90;80.80;;;;;;4958218;28;19906;-82
2023/12/10 10:29:44;;;;;;;;;;;12.90;80.90;;;;;;4970667;28;19906;-81
2023/12/10 10:32:10;;;;;;;;;;;12.90;80.90;;;;;;4975636;28;20370;-84
2023/12/10 10:34:35;;;;;;;;;;;12.90;80.90;;;;;;4958150;28;20450;-83
2023/12/10 10:37:01;;;;;;;;;;;12.90;80.90;;;;;;4958339;28;19906;-82
2023/12/10 10:39:27;;;;;;;;;;;12.90;80.90;;;;;;4957850;28;19910;-82
2023/12/10 10:41:54;;;;;;;;;;;12.90;80.90;;;;;;4957961;28;19910;-83
2023/12/10 10:44:49;;;;;;;;;;;12.90;80.90;;;;;;4975016;28;19906;-83
2023/12/10 10:50:09;;;;;;;;;;;12.90;81.00;;;;;;4977045;28;19949;-82
2023/12/10 10:52:44;;;;;;;;;;;12.80;80.90;;;;;;4957970;28;19953;-82
2023/12/10 10:55:21;;;;;;;;;;;12.90;81.00;;;;;;4958289;28;19910;-83
2023/12/10 10:57:46;;;;;;;;;;;12.90;81.00;;;;;;4957912;28;19969;-82
2023/12/10 11:03:30;;;;;;;;;;;12.90;81.00;;;;;;4977097;28;19913;-81
2023/12/10 11:06:04;;;;;;;;;;;12.90;81.00;;;;;;4974150;28;19913;-81
2023/12/10 11:11:47;;;;;;;;;;;12.90;81.00;;;;;;4977811;28;19956;-83
2023/12/10 11:14:22;;;;;;;;;;;12.90;81.00;;;;;;4957808;28;19928;-81
2023/12/10 11:17:05;;;;;;;;;;;12.90;81.00;;;;;;4957734;28;19906;-81
2023/12/10 11:19:41;;;;;;;;;;;12.90;81.00;;;;;;4958018;28;19909;-82
2023/12/10 11:22:17;;;;;;;;;;;12.90;81.00;;;;;;4973629;28;19906;-82
2023/12/10 11:24:42;;;;;;;;;;;12.90;81.00;;;;;;4958544;28;19929;-82
2023/12/10 11:27:10;;;;;;;;;;;12.90;81.00;;;;;;4957402;28;19909;-82
2023/12/10 11:29:40;;;;;;;;;;;12.90;81.00;;;;;;4957112;28;19913;-82
2023/12/10 11:32:15;;;;;;;;;;;12.90;81.00;;;;;;4957203;28;19906;-83
2023/12/10 11:34:42;;;;;;;;;;;12.90;81.00;;;;;;4970060;28;19911;-82
2023/12/10 11:37:08;;;;;;;;;;;12.90;81.00;;;;;;4974580;28;19914;-83
2023/12/10 11:39:33;;;;;;;;;;;12.90;81.00;;;;;;4956984;28;19914;-81
2023/12/10 11:41:59;;;;;;;;;;;12.90;81.10;;;;;;4956735;28;19913;-82
2023/12/10 11:44:30;;;;;;;;;;;12.90;81.10;;;;;;4956976;28;20004;-83
2023/12/10 11:47:14;;;;;;;;;;;12.90;81.10;;;;;;4957446;28;20594;-83
2023/12/10 11:49:43;;;;;;;;;;;12.90;81.10;;;;;;4974083;28;19906;-82
2023/12/10 11:52:11;;;;;;;;;;;12.90;81.10;;;;;;4957072;28;20355;-81
2023/12/10 11:57:26;;;;;;;;;;;12.70;80.90;;;;;;4958794;29;19921;-82
2023/12/10 12:00:24;;;;;;;;;;;12.90;81.10;;;;;;4957802;29;19914;-84
2023/12/10 12:02:51;;;;;;;;;;;12.90;81.10;;;;;;4957999;29;19913;-83
2023/12/10 12:05:17;;;;;;;;;;;12.90;81.10;;;;;;4957651;29;19907;-82
2023/12/10 12:07:43;;;;;;;;;;;12.90;81.10;;;;;;4957643;29;20382;-82
2023/12/10 12:10:10;;;;;;;;;;;12.90;81.10;;;;;;4957516;29;20083;-83
2023/12/10 12:12:52;;;;;;;;;;;12.90;81.10;;;;;;4957846;29;19949;-81
2023/12/10 12:15:25;;;;;;;;;;;12.90;81.10;;;;;;4959141;28;19906;-83
2023/12/10 12:17:51;;;;;;;;;;;12.90;81.10;;;;;;4958623;29;19910;-82
2023/12/10 12:20:26;;;;;;;;;;;12.90;81.10;;;;;;4958254;29;20284;-82
2023/12/10 12:22:51;;;;;;;;;;;12.90;81.10;;;;;;4958758;29;19949;-83
2023/12/10 12:25:17;;;;;;;;;;;12.90;81.10;;;;;;4957808;29;20376;-82
2023/12/10 12:27:53;;;;;;;;;;;12.90;81.10;;;;;;4957661;29;20367;-82
2023/12/10 12:30:26;;;;;;;;;;;12.90;81.10;;;;;;4957304;29;19906;-83
2023/12/10 12:32:57;;;;;;;;;;;12.90;81.10;;;;;;4958215;29;20278;-83
2023/12/10 12:35:23;;;;;;;;;;;12.90;81.10;;;;;;4959439;28;19918;-81
2023/12/10 12:37:52;;;;;;;;;;;12.90;81.10;;;;;;4957480;29;20026;-82
2023/12/10 12:40:40;;;;;;;;;;;12.90;81.10;;;;;;4958781;29;19907;-83
2023/12/10 12:43:17;;;;;;;;;;;12.90;81.10;;;;;;4958660;29;19907;-82
2023/12/10 12:46:18;;;;;;;;;;;12.90;81.20;;;;;;4959010;29;20002;-82
2023/12/10 12:54:51;;;;;;;;;;;12.90;81.20;;;;;;4962468;29;20038;-84
2023/12/10 13:00:20;;;;;;;;;;;12.90;81.20;;;;;;4964823;29;19953;-83
2023/12/10 13:02:48;;;;;;;;;;;12.80;81.10;;;;;;4941719;29;19907;-82
2023/12/10 13:05:32;;;;;;;;;;;12.80;81.20;;;;;;4958938;29;19911;-81
2023/12/10 13:08:06;;;;;;;;;;;12.80;81.20;;;;;;4940454;29;19913;-83
2023/12/10 13:13:30;;;;;;;;;;;12.80;81.20;;;;;;5024621;23;19922;-83
2023/12/10 13:16:07;;;;;;;;;;;12.80;81.20;;;;;;4979335;28;19913;-82
2023/12/10 13:18:39;;;;;;;;;;;12.80;81.20;;;;;;4996820;28;19925;-84
2023/12/10 13:21:12;;;;;;;;;;;12.90;81.30;;;;;;4996266;28;19928;-82
2023/12/10 13:23:43;;;;;;;;;;;12.80;81.20;;;;;;4978968;28;19929;-81
2023/12/10 13:26:12;;;;;;;;;;;12.80;81.20;;;;;;4996701;28;19906;-82
2023/12/10 13:28:43;;;;;;;;;;;12.80;81.20;;;;;;4978689;28;19905;-82
2023/12/10 13:31:13;;;;;;;;;;;12.80;81.20;;;;;;4996353;28;20318;-83
2023/12/10 13:33:48;;;;;;;;;;;12.80;81.20;;;;;;4996549;28;19909;-82
2023/12/10 13:36:13;;;;;;;;;;;12.80;81.20;;;;;;4978590;28;19914;-83
2023/12/10 13:38:39;;;;;;;;;;;12.90;81.30;;;;;;4977972;28;20345;-83
2023/12/10 13:41:05;;;;;;;;;;;12.80;81.20;;;;;;4978565;28;19906;-82
2023/12/10 13:43:44;;;;;;;;;;;12.90;81.20;;;;;;4994925;28;20326;-82
2023/12/10 13:46:10;;;;;;;;;;;12.90;81.20;;;;;;4978468;28;19906;-83
2023/12/10 13:48:36;;;;;;;;;;;12.90;81.20;;;;;;4962023;28;20370;-84
2023/12/10 13:51:03;;;;;;;;;;;12.90;81.10;;;;;;4978161;28;19964;-82
2023/12/10 13:53:33;;;;;;;;;;;12.90;81.10;;;;;;4978025;28;19906;-83
2023/12/10 13:55:58;;;;;;;;;;;12.90;81.10;;;;;;4978071;28;19959;-83
2023/12/10 13:58:24;;;;;;;;;;;12.90;81.10;;;;;;4977906;28;19921;-83
2023/12/10 14:00:49;;;;;;;;;;;12.90;81.00;;;;;;4977841;28;20259;-82
2023/12/10 14:03:16;;;;;;;;;;;12.90;81.00;;;;;;4977758;28;19917;-82
2023/12/10 14:05:42;;;;;;;;;;;12.90;81.10;;;;;;4995573;28;19906;-82
2023/12/10 14:08:14;;;;;;;;;;;12.90;81.10;;;;;;4977711;28;19912;-82
2023/12/10 14:10:54;;;;;;;;;;;12.90;81.10;;;;;;4977670;28;19910;-83
2023/12/10 14:13:25;;;;;;;;;;;12.80;81.10;;;;;;4995416;28;19964;-82
2023/12/10 14:15:55;;;;;;;;;;;12.90;81.20;;;;;;4995398;28;19906;-82
2023/12/10 14:18:29;;;;;;;;;;;12.90;81.20;;;;;;4974600;28;19909;-82
2023/12/10 14:20:55;;;;;;;;;;;12.90;81.20;;;;;;4977411;28;19909;-83
2023/12/10 14:23:24;;;;;;;;;;;12.80;81.20;;;;;;4977602;28;19906;-82
2023/12/10 14:26:16;;;;;;;;;;;12.90;81.30;;;;;;4977736;28;19914;-82
2023/12/10 14:28:52;;;;;;;;;;;12.90;81.20;;;;;;4990394;28;20008;-83
2023/12/10 14:31:37;;;;;;;;;;;12.80;81.20;;;;;;4994527;28;20381;-81
2023/12/10 14:34:08;;;;;;;;;;;12.80;81.20;;;;;;4977460;28;19960;-83
2023/12/10 14:36:34;;;;;;;;;;;12.90;81.30;;;;;;4995120;28;19906;-78
2023/12/10 14:39:12;;;;;;;;;;;12.80;81.20;;;;;;4977342;28;19916;-83
2023/12/10 14:41:41;;;;;;;;;;;12.80;81.20;;;;;;4978650;28;19910;-82
2023/12/10 14:44:07;;;;;;;;;;;12.80;81.20;;;;;;4977617;28;19997;-82
2023/12/10 14:47:06;;;;;;;;;;;12.80;81.20;;;;;;4977727;28;19945;-80
2023/12/10 14:49:33;;;;;;;;;;;12.80;81.30;;;;;;4979369;28;20000;-83
2023/12/10 14:52:01;;;;;;;;;;;12.80;81.30;;;;;;4977659;28;19913;-82
2023/12/10 14:54:44;;;;;;;;;;;12.80;81.30;;;;;;4978720;28;20370;-84
2023/12/10 14:57:10;;;;;;;;;;;12.80;81.30;;;;;;4977378;28;19906;-81
2023/12/10 14:59:39;;;;;;;;;;;12.80;81.30;;;;;;4977772;28;19910;-83
2023/12/10 15:02:12;;;;;;;;;;;12.80;81.30;;;;;;4976869;28;19910;-82
2023/12/10 15:04:42;;;;;;;;;;;12.80;81.30;;;;;;4960686;28;19906;-82
2023/12/10 15:07:17;;;;;;;;;;;12.80;81.40;;;;;;4972244;28;19914;-81
2023/12/10 15:09:52;;;;;;;;;;;12.80;81.30;;;;;;4975591;28;19971;-84
2023/12/10 15:12:19;;;;;;;;;;;12.80;81.40;;;;;;4976322;28;19953;-82
2023/12/10 15:14:44;;;;;;;;;;;12.80;81.40;;;;;;4976370;28;19906;-82
2023/12/10 15:17:45;;;;;;;;;;;12.80;81.40;;;;;;4976297;28;20397;-83
2023/12/10 15:20:23;;;;;;;;;;;12.80;81.40;;;;;;4971928;28;20295;-82
2023/12/10 15:22:50;;;;;;;;;;;12.80;81.30;;;;;;4940694;28;19910;-81
2023/12/10 15:25:15;;;;;;;;;;;12.70;81.30;;;;;;4974313;28;20283;-82
2023/12/10 15:30:46;;;;;;;;;;;12.70;81.30;;;;;;4993933;28;19964;-81